createdAt,value
2023-02-24T10:02:37.012Z,22.86
2023-02-24T10:03:37.211Z,22.86
2023-02-24T10:04:37.507Z,22.88
2023-02-24T10:05:37.824Z,22.90
2023-02-24T10:06:38.107Z,22.91
2023-02-24T10:07:38.491Z,22.94
2023-02-24T10:08:38.595Z,22.94
2023-02-24T10:09:38.903Z,22.94
2023-02-24T10:10:39.271Z,22.94
2023-02-24T10:11:39.410Z,22.95
2023-02-24T10:12:39.666Z,22.94
2023-02-24T10:13:39.918Z,22.95
2023-02-24T10:14:44.387Z,22.95
2023-02-24T10:15:40.319Z,22.97
2023-02-24T10:16:40.626Z,22.97
2023-02-24T10:17:40.785Z,22.98
2023-02-24T10:18:41.054Z,22.98
2023-02-24T10:19:41.354Z,22.98
2023-02-24T10:20:41.591Z,23.00
2023-02-24T10:21:41.861Z,22.98
2023-02-24T10:22:42.111Z,23.00
2023-02-24T10:23:43.364Z,23.00
2023-02-24T10:24:42.571Z,23.01
2023-02-24T10:25:42.842Z,23.01
2023-02-24T10:26:51.155Z,23.01
2023-02-24T10:27:44.227Z,23.02
2023-02-24T10:28:43.413Z,23.04
2023-02-24T10:29:43.681Z,23.05
2023-02-24T10:30:43.899Z,23.07
2023-02-24T10:31:44.115Z,23.10
2023-02-24T10:32:44.213Z,23.09
2023-02-24T10:33:44.346Z,23.12
2023-02-24T10:34:44.510Z,23.13
2023-02-24T10:35:44.787Z,23.13
2023-02-24T10:36:44.905Z,23.13
2023-02-24T10:37:45.177Z,23.13
2023-02-24T10:38:45.319Z,23.16
2023-02-24T10:39:45.578Z,23.16
2023-02-24T10:40:45.737Z,23.16
2023-02-24T10:41:45.970Z,23.17
2023-02-24T10:42:46.157Z,23.19
2023-02-24T10:43:46.323Z,23.17
2023-02-24T10:44:48.601Z,23.19
2023-02-24T10:45:46.719Z,23.20
2023-02-24T10:46:47.245Z,23.20
2023-02-24T10:47:46.988Z,23.22
2023-02-24T10:48:47.121Z,23.22
2023-02-24T10:49:47.390Z,23.20
2023-02-24T10:50:56.028Z,23.22
2023-02-24T10:51:48.761Z,23.23
2023-02-24T10:52:47.929Z,23.23
2023-02-24T10:53:48.205Z,23.25
2023-02-24T10:54:48.376Z,23.23
2023-02-24T10:55:48.513Z,23.23
2023-02-24T10:56:48.672Z,23.25
2023-02-24T10:57:58.529Z,23.23
2023-02-24T10:58:50.163Z,23.23
2023-02-24T10:59:49.366Z,23.23
2023-02-24T11:00:49.610Z,23.25
2023-02-24T11:01:49.783Z,23.25
2023-02-24T11:02:49.997Z,23.25
2023-02-24T11:03:50.111Z,23.25
2023-02-24T11:04:50.380Z,23.23
2023-02-24T11:05:50.503Z,23.25
2023-02-24T11:06:50.773Z,23.25
2023-02-24T11:07:50.903Z,23.28
2023-02-24T11:08:51.183Z,23.27
2023-02-24T11:09:51.295Z,23.28
2023-02-24T11:10:51.562Z,23.31
2023-02-24T11:11:51.797Z,23.31
2023-02-24T11:13:00.889Z,23.32
2023-02-24T11:13:53.293Z,23.32
2023-02-24T11:14:52.531Z,23.32
2023-02-24T11:15:52.660Z,23.33
2023-02-24T11:16:52.884Z,23.35
2023-02-24T11:17:53.158Z,23.35
2023-02-24T11:18:53.284Z,23.36
2023-02-24T11:19:53.419Z,23.35
2023-02-24T11:20:53.673Z,23.35
2023-02-24T11:21:53.795Z,23.38
2023-02-24T11:22:54.053Z,23.36
2023-02-24T11:23:54.183Z,23.38
2023-02-24T11:24:54.457Z,23.38
2023-02-24T11:25:54.587Z,23.38
2023-02-24T11:26:54.844Z,23.39
2023-02-24T11:27:55.075Z,23.39
2023-02-24T11:28:55.334Z,23.39
2023-02-24T11:29:55.566Z,23.42
2023-02-24T11:30:55.804Z,23.42
2023-02-24T11:31:56.089Z,23.43
2023-02-24T11:32:56.149Z,23.43
2023-02-24T11:33:56.248Z,23.43
2023-02-24T11:34:56.514Z,23.46
2023-02-24T11:35:56.634Z,23.47
2023-02-24T11:36:57.066Z,23.47
2023-02-24T11:37:57.017Z,23.48
2023-02-24T11:39:05.601Z,23.47
2023-02-24T11:39:58.405Z,23.48
2023-02-24T11:40:57.592Z,23.48
2023-02-24T11:41:57.828Z,23.48
2023-02-24T11:42:57.997Z,23.51
2023-02-24T11:43:58.125Z,23.51
2023-02-24T11:44:58.382Z,23.50
2023-02-24T11:45:58.563Z,23.51
2023-02-24T11:46:58.704Z,23.54
2023-02-24T11:47:58.832Z,23.53
2023-02-24T11:48:58.986Z,23.55
2023-02-24T11:49:59.127Z,23.57
2023-02-24T11:50:59.389Z,23.57
2023-02-24T11:51:59.534Z,23.57
2023-02-24T11:52:59.805Z,23.58
